LFBG/CNG METAR and TAF weather

Enter ICAO airport designator
Station Type Date Time Source
LFBG METAR 2020/01/24 09:30 UTC NOAA

LFBG 240930Z AUTO 06003KT 9000 NSC 07/07 Q1021 NOSIG


Station Type Date Time Source
LFBG Decoded METAR 2020/01/24 09:30 UTC NOAA

Cognac, France (LFBG) 45-40N 000-19W 31M
Jan 24, 2020 - 04:30 AM EST / 2020.01.24 0930 UTC
Wind: from the ENE (060 degrees) at 3 MPH (3 KT):0
Visibility: 5 mile(s):0
Temperature: 44 F (7 C)
Dew Point: 44 F (7 C)
Relative Humidity: 100%
Pressure (altimeter): 30.15 in. Hg (1021 hPa)
ob: LFBG 240930Z AUTO 06003KT 9000 NSC 07/07 Q1021 NOSIG
cycle: 9

Station Type Date Time Source
LFBG TAF 2020/01/24 09:15 UTC NOAA

TAF TAF LFBG 240800Z 2409/2509 12005KT 6000 NSC
BECMG 2417/2419 2000 BR BKN003 PROB30
TEMPO 2420/2507 0500 FG VV///

Example: see airport list